Time;durP1;ratioP1;P1;durP2;ratioP2;P2;SDS_P1;SDS_P2;PMS_P1;PMS_P2;Temp;Humidity;BMP_temperature;BMP_pressure;BME280_temperature;BME280_humidity;BME280_pressure;Samples;Min_cycle;Max_cycle;Signal;HPM_P1;HPM_P2
2021/05/14 00:01:48;;;;;;;7.28;4.80;;;;;;;13.73;84.40;99790.50;5033357;28;20034;-86
2021/05/14 00:04:14;;;;;;;5.57;4.40;;;;;;;13.77;84.21;99790.09;5034050;28;20034;-86
2021/05/14 00:06:39;;;;;;;12.00;4.70;;;;;;;13.64;83.47;99781.63;5032172;28;20080;-87
2021/05/14 00:09:05;;;;;;;5.93;4.78;;;;;;;13.67;84.29;99789.25;5033907;28;20053;-86
2021/05/14 00:11:30;;;;;;;7.78;4.90;;;;;;;13.77;84.08;99792.72;5031615;28;20033;-86
2021/05/14 00:13:59;;;;;;;8.40;4.47;;;;;;;13.67;84.55;99795.38;5030644;28;20117;-86
2021/05/14 00:16:24;;;;;;;5.40;4.18;;;;;;;13.48;84.07;99792.72;5033466;28;20022;-86
2021/05/14 00:18:49;;;;;;;6.95;3.90;;;;;;;13.65;83.95;99792.03;5013931;28;20053;-86
2021/05/14 00:21:15;;;;;;;9.75;4.32;;;;;;;13.69;83.63;99800.50;5013982;28;20033;-87
2021/05/14 00:23:40;;;;;;;6.90;4.40;;;;;;;13.65;84.30;99796.50;5016599;28;20030;-86
2021/05/14 00:26:05;;;;;;;5.53;3.78;;;;;;;13.65;84.65;99799.13;5033529;28;20030;-86
2021/05/14 00:28:31;;;;;;;8.05;4.32;;;;;;;13.60;84.23;99796.06;5016642;28;20090;-86
2021/05/14 00:30:56;;;;;;;7.38;4.20;;;;;;;13.42;84.56;99799.38;5013767;28;20030;-87
2021/05/14 00:33:21;;;;;;;9.25;4.78;;;;;;;13.44;84.34;99802.69;5017047;28;20045;-87
2021/05/14 00:35:47;;;;;;;5.63;3.88;;;;;;;13.56;83.81;99805.22;5032919;28;20036;-86
2021/05/14 00:38:14;;;;;;;7.28;4.18;;;;;;;13.56;82.23;99802.59;5020012;28;20034;-86
2021/05/14 00:40:39;;;;;;;5.07;3.90;;;;;;;13.58;83.63;99808.56;5017673;28;20022;-86
2021/05/14 00:43:04;;;;;;;9.82;4.22;;;;;;;13.58;83.55;99806.75;5033658;28;20028;-86
2021/05/14 00:45:30;;;;;;;8.38;4.50;;;;;;;13.61;83.10;99809.13;5030418;28;20092;-86
2021/05/14 00:47:55;;;;;;;8.23;4.15;;;;;;;13.65;83.05;99809.69;5013740;28;20026;-86
2021/05/14 00:50:21;;;;;;;5.85;3.72;;;;;;;13.69;83.10;99805.78;5013203;28;20049;-86
2021/05/14 00:52:47;;;;;;;7.38;4.20;;;;;;;13.58;83.67;99808.56;5033023;28;20025;-86
2021/05/14 00:55:12;;;;;;;6.78;4.05;;;;;;;13.65;83.70;99814.94;5033090;28;20479;-86
2021/05/14 00:57:40;;;;;;;8.00;4.85;;;;;;;13.65;84.11;99812.31;5019641;28;20455;-86
2021/05/14 01:00:06;;;;;;;7.53;4.65;;;;;;;13.57;83.53;99812.19;5032883;28;20025;-86
2021/05/14 01:02:31;;;;;;;7.97;4.53;;;;;;;13.63;83.11;99811.63;5028019;28;20076;-86
2021/05/14 01:04:57;;;;;;;9.40;5.13;;;;;;;13.44;84.41;99818.53;5033046;28;20069;-86
2021/05/14 01:07:23;;;;;;;8.45;5.20;;;;;;;13.62;82.90;99815.22;5015579;28;20220;-86
2021/05/14 01:09:48;;;;;;;12.35;5.35;;;;;;;13.62;83.33;99815.22;5012797;28;20563;-86
2021/05/14 01:12:14;;;;;;;6.90;4.75;;;;;;;13.54;83.99;99820.34;5026373;28;20475;-86
2021/05/14 01:14:39;;;;;;;6.43;4.65;;;;;;;13.64;83.77;99818.53;5024262;28;20075;-86
2021/05/14 01:17:05;;;;;;;7.22;5.38;;;;;;;13.67;83.84;99823.56;5013221;28;20026;-86
2021/05/14 01:19:30;;;;;;;9.48;5.95;;;;;;;13.61;83.86;99824.13;5019247;28;20026;-86
2021/05/14 01:21:56;;;;;;;7.50;5.45;;;;;;;13.55;84.45;99827.31;5032589;28;20072;-86
2021/05/14 01:24:21;;;;;;;10.00;6.30;;;;;;;13.48;85.13;99824.38;5027726;28;20033;-86
2021/05/14 01:26:46;;;;;;;7.63;5.32;;;;;;;13.60;83.63;99807.44;5013006;28;20168;-86
2021/05/14 01:29:12;;;;;;;8.73;5.80;;;;;;;13.72;83.58;99817.84;5015712;28;20037;-87
2021/05/14 01:31:39;;;;;;;6.70;5.13;;;;;;;13.71;83.63;99819.66;5026931;28;20030;-86
2021/05/14 01:34:07;;;;;;;5.90;5.22;;;;;;;13.74;83.66;99823.81;5012951;28;20038;-86
2021/05/14 01:36:34;;;;;;;9.18;5.75;;;;;;;13.72;82.76;99825.78;5012740;28;20026;-86
2021/05/14 01:39:16;;;;;;;13.27;6.13;;;;;;;13.61;83.59;99821.47;5011583;28;20029;-86
2021/05/14 01:41:42;;;;;;;4.90;4.18;;;;;;;13.65;82.40;99821.06;5012456;28;20105;-86
2021/05/14 01:44:07;;;;;;;8.60;5.25;;;;;;;13.72;81.40;99826.59;5012882;28;20101;-86
2021/05/14 01:46:33;;;;;;;6.82;5.05;;;;;;;13.69;82.25;99832.16;5012616;28;20084;-86
2021/05/14 01:48:59;;;;;;;6.75;4.95;;;;;;;13.56;82.21;99826.31;5012623;28;20522;-85
2021/05/14 01:51:25;;;;;;;9.10;5.45;;;;;;;13.59;81.80;99826.06;5030359;28;20037;-86
2021/05/14 01:53:51;;;;;;;8.73;5.53;;;;;;;13.56;82.45;99829.78;5018732;28;20036;-86
2021/05/14 01:56:17;;;;;;;6.40;5.20;;;;;;;13.56;81.87;99831.59;5012631;28;20052;-86
2021/05/14 01:58:42;;;;;;;11.10;6.88;;;;;;;13.58;81.86;99832.28;5023280;28;20492;-86
2021/05/14 02:01:08;;;;;;;9.18;6.57;;;;;;;13.42;82.30;99832.84;5027621;28;20374;-86
2021/05/14 02:03:34;;;;;;;7.28;5.85;;;;;;;13.56;82.53;99834.22;5021524;28;20029;-86
2021/05/14 02:05:59;;;;;;;7.80;6.20;;;;;;;13.52;82.42;99830.22;5031913;28;20018;-86
2021/05/14 02:08:25;;;;;;;7.68;6.00;;;;;;;13.27;82.96;99832.38;5023723;28;20057;-86
2021/05/14 02:10:50;;;;;;;6.95;4.88;;;;;;;13.39;82.69;99831.31;5026900;28;20064;-86
2021/05/14 02:13:16;;;;;;;7.90;5.18;;;;;;;13.44;81.98;99838.78;5026371;28;20018;-86
2021/05/14 02:15:41;;;;;;;8.82;5.25;;;;;;;13.27;81.77;99835.00;5010833;28;20064;-86
2021/05/14 02:18:07;;;;;;;8.77;4.78;;;;;;;13.41;81.79;99839.09;5016108;28;20484;-86
2021/05/14 02:20:33;;;;;;;7.00;4.15;;;;;;;13.37;82.53;99833.25;5031910;28;20029;-87
2021/05/14 02:23:00;;;;;;;7.28;4.45;;;;;;;13.48;81.31;99827.00;5029338;28;20486;-86
2021/05/14 02:25:25;;;;;;;6.63;4.75;;;;;;;13.41;81.75;99823.28;5011957;28;20026;-86
2021/05/14 02:27:51;;;;;;;5.85;4.63;;;;;;;13.37;82.16;99832.38;5028532;28;20383;-86
2021/05/14 02:30:16;;;;;;;7.45;5.18;;;;;;;13.33;83.77;99831.84;5031466;28;20030;-86
2021/05/14 02:32:42;;;;;;;8.65;5.30;;;;;;;13.39;82.81;99836.59;5030026;28;20030;-86
2021/05/14 02:35:08;;;;;;;6.00;5.00;;;;;;;13.23;84.44;99834.44;5020949;28;20076;-86
2021/05/14 02:37:34;;;;;;;10.88;5.25;;;;;;;13.33;84.14;99834.50;5012086;28;20030;-87
2021/05/14 02:39:59;;;;;;;8.25;5.68;;;;;;;13.26;83.62;99835.97;5021394;28;20369;-86
2021/05/14 02:42:25;;;;;;;8.65;4.95;;;;;;;13.24;84.05;99832.63;5046963;28;20037;-86
2021/05/14 02:44:50;;;;;;;6.60;4.90;;;;;;;13.21;83.70;99838.16;5012921;28;20026;-86
2021/05/14 02:47:16;;;;;;;8.20;4.43;;;;;;;13.16;83.69;99835.94;5011823;28;20089;-86
2021/05/14 02:49:41;;;;;;;8.02;4.90;;;;;;;13.19;83.74;99834.81;5014690;28;20113;-85
2021/05/14 02:52:07;;;;;;;7.45;5.00;;;;;;;13.29;84.00;99841.84;5012493;28;20502;-87
2021/05/14 02:54:36;;;;;;;7.82;5.60;;;;;;;13.33;83.61;99834.50;5027157;28;20087;-86
2021/05/14 02:57:03;;;;;;;11.63;6.18;;;;;;;13.25;84.25;99835.13;5033425;28;20372;-86
2021/05/14 02:59:28;;;;;;;8.05;6.07;;;;;;;13.21;84.63;99832.88;5020525;28;20476;-85
2021/05/14 03:01:53;;;;;;;8.80;6.63;;;;;;;13.24;83.82;99827.34;5021750;28;20038;-85
2021/05/14 03:04:19;;;;;;;8.52;5.75;;;;;;;13.25;84.04;99826.38;5024228;28;20107;-85
2021/05/14 03:06:45;;;;;;;7.18;5.72;;;;;;;13.27;83.58;99833.19;5032387;28;20433;-86
2021/05/14 03:09:10;;;;;;;9.75;6.18;;;;;;;13.29;84.34;99836.56;5020735;28;20061;-86
2021/05/14 03:11:36;;;;;;;6.55;5.20;;;;;;;13.30;84.13;99837.38;5012437;28;20054;-86
2021/05/14 03:14:03;;;;;;;6.22;5.53;;;;;;;13.32;84.12;99839.91;5025114;28;20360;-86
2021/05/14 03:16:29;;;;;;;6.47;5.57;;;;;;;13.29;84.14;99839.19;5032208;28;20049;-86
2021/05/14 03:18:54;;;;;;;10.15;6.45;;;;;;;13.21;84.30;99838.16;5017257;28;20026;-86
2021/05/14 03:21:19;;;;;;;7.30;6.18;;;;;;;13.16;84.06;99829.84;5017902;28;20380;-85
2021/05/14 03:23:45;;;;;;;10.10;7.45;;;;;;;13.22;84.54;99838.03;5034104;28;20387;-86
2021/05/14 03:26:10;;;;;;;9.27;6.00;;;;;;;13.23;83.84;99834.44;5014977;28;20026;-86
2021/05/14 03:28:35;;;;;;;9.98;6.55;;;;;;;13.24;84.46;99837.91;5015888;28;20513;-86
2021/05/14 03:31:01;;;;;;;7.00;6.13;;;;;;;13.16;84.12;99840.38;5028337;28;20390;-86
2021/05/14 03:33:26;;;;;;;7.47;5.07;;;;;;;13.22;83.89;99835.41;5019887;28;20104;-86
2021/05/14 03:35:53;;;;;;;8.93;5.97;;;;;;;13.09;84.21;99843.56;5034993;28;20028;-86
2021/05/14 03:38:22;;;;;;;12.32;5.88;;;;;;;13.05;84.29;99839.53;5031075;28;20463;-87
2021/05/14 03:40:48;;;;;;;9.10;5.80;;;;;;;12.96;84.01;99834.22;5014708;28;20030;-86
2021/05/14 03:43:13;;;;;;;8.15;5.22;;;;;;;12.93;83.88;99837.94;5014922;28;20022;-87
2021/05/14 03:45:39;;;;;;;7.00;5.10;;;;;;;13.01;82.97;99839.91;5014640;28;20021;-86
2021/05/14 03:48:18;;;;;;;6.45;4.68;;;;;;;13.07;81.88;99848.13;5014808;28;20026;-86
2021/05/14 03:50:45;;;;;;;8.02;4.10;;;;;;;12.89;81.69;99850.56;5034617;28;20025;-86
2021/05/14 03:53:11;;;;;;;7.32;4.55;;;;;;;12.94;81.84;99844.88;5021127;28;20040;-86
2021/05/14 03:55:37;;;;;;;7.47;4.18;;;;;;;12.89;82.09;99852.34;5015151;28;20025;-86
2021/05/14 03:58:02;;;;;;;6.50;4.13;;;;;;;12.93;81.79;99859.00;5026117;28;20040;-86
2021/05/14 04:00:28;;;;;;;9.25;4.68;;;;;;;12.74;82.36;99857.16;5032030;28;20026;-86
2021/05/14 04:02:55;;;;;;;5.45;4.05;;;;;;;12.55;83.78;99852.59;5034265;28;20031;-86
2021/05/14 04:05:21;;;;;;;6.57;3.90;;;;;;;12.61;83.31;99857.34;5032472;28;20422;-86
2021/05/14 04:07:47;;;;;;;6.30;4.13;;;;;;;12.51;83.96;99867.00;5014584;28;20080;-87
2021/05/14 04:10:18;;;;;;;9.52;4.68;;;;;;;12.52;84.10;99866.06;5014686;28;20113;-86
2021/05/14 04:15:27;;;;;;;8.10;3.78;;;;;;;12.41;83.03;99871.38;5033480;28;20043;-86
2021/05/14 04:17:53;;;;;;;6.07;4.25;;;;;;;12.47;83.80;99876.13;5034424;28;20025;-87
2021/05/14 04:20:18;;;;;;;5.78;4.30;;;;;;;12.46;83.76;99877.94;5019508;28;20038;-87
2021/05/14 04:22:43;;;;;;;8.20;4.72;;;;;;;12.46;84.02;99871.81;5014511;28;20026;-86
2021/05/14 04:25:09;;;;;;;8.65;4.63;;;;;;;12.24;84.78;99872.78;5025540;28;20029;-86
2021/05/14 04:27:35;;;;;;;7.55;4.95;;;;;;;12.35;85.48;99877.16;5034221;28;20021;-86
2021/05/14 04:30:00;;;;;;;7.80;4.70;;;;;;;12.42;85.07;99879.16;5032814;28;20116;-87
2021/05/14 04:32:25;;;;;;;5.50;3.95;;;;;;;12.59;84.72;99888.25;5015291;28;20037;-86
2021/05/14 04:34:51;;;;;;;5.18;3.95;;;;;;;12.57;84.62;99882.28;5022817;28;20025;-86
2021/05/14 04:37:16;;;;;;;6.55;4.35;;;;;;;12.58;84.63;99885.75;5033579;28;20090;-87
2021/05/14 04:39:42;;;;;;;8.18;4.35;;;;;;;12.41;85.71;99881.91;5033000;28;20450;-87
2021/05/14 04:42:07;;;;;;;7.10;4.25;;;;;;;12.50;85.38;99887.25;5033504;28;20463;-87
2021/05/14 04:44:33;;;;;;;7.45;4.07;;;;;;;12.58;86.19;99891.00;5027308;28;20034;-87
2021/05/14 04:46:58;;;;;;;6.88;3.67;;;;;;;12.53;85.14;99891.41;5013898;28;20087;-87
2021/05/14 04:49:24;;;;;;;5.43;3.60;;;;;;;12.68;85.06;99905.09;5013731;28;20064;-87
2021/05/14 04:51:49;;;;;;;7.63;3.92;;;;;;;12.74;85.22;99898.44;5013559;28;20079;-87
2021/05/14 04:54:15;;;;;;;5.90;3.75;;;;;;;12.73;84.62;99899.44;5028141;28;20049;-87
2021/05/14 04:56:40;;;;;;;7.75;3.85;;;;;;;12.77;85.12;99898.19;5033729;28;20110;-87
2021/05/14 04:59:05;;;;;;;5.38;4.10;;;;;;;12.84;84.65;99909.88;5020214;28;20034;-87
2021/05/14 05:01:31;;;;;;;9.90;4.70;;;;;;;12.81;84.56;99905.69;5025939;28;20534;-87
2021/05/14 05:03:58;;;;;;;9.05;4.40;;;;;;;12.94;84.22;99900.22;5022067;28;20084;-87
2021/05/14 05:06:23;;;;;;;7.40;3.95;;;;;;;12.96;83.71;99914.09;5013909;28;20468;-87
2021/05/14 05:08:49;;;;;;;7.00;4.13;;;;;;;12.94;83.74;99909.94;5013880;28;20041;-87
2021/05/14 05:11:14;;;;;;;7.47;4.35;;;;;;;12.96;84.57;99915.91;5013086;28;20026;-87
2021/05/14 05:13:40;;;;;;;9.02;4.38;;;;;;;12.83;84.11;99908.19;5032601;28;20025;-87
2021/05/14 05:16:06;;;;;;;8.43;4.40;;;;;;;12.95;83.70;99917.69;5033076;28;20029;-87
2021/05/14 05:18:32;;;;;;;8.52;4.30;;;;;;;13.03;84.00;99915.25;5033250;28;20072;-87
2021/05/14 05:20:57;;;;;;;5.85;3.85;;;;;;;13.04;83.20;99916.91;5032739;28;20061;-87
2021/05/14 05:23:23;;;;;;;8.30;3.85;;;;;;;13.02;82.94;99916.22;5032221;28;20025;-87
2021/05/14 05:25:49;;;;;;;6.07;4.07;;;;;;;13.01;82.90;99914.56;5032962;28;20060;-87
2021/05/14 05:28:19;;;;;;;7.22;3.85;;;;;;;13.01;83.37;99917.19;5017949;28;20064;-87
2021/05/14 05:30:44;;;;;;;6.18;4.13;;;;;;;13.09;83.46;99922.63;5019426;28;20037;-86
2021/05/14 05:33:10;;;;;;;8.40;4.78;;;;;;;13.04;83.89;99922.19;5019449;28;20040;-87
2021/05/14 05:35:35;;;;;;;11.32;4.72;;;;;;;13.04;83.69;99940.63;5012830;28;20129;-86
2021/05/14 05:38:00;;;;;;;8.23;4.97;;;;;;;13.11;83.68;99933.03;5024197;28;20064;-87
2021/05/14 05:40:26;;;;;;;10.32;4.75;;;;;;;13.17;83.70;99939.56;5032705;28;20530;-87
2021/05/14 05:42:51;;;;;;;9.52;4.20;;;;;;;13.27;83.10;99943.09;5022388;28;20384;-87
2021/05/14 05:45:16;;;;;;;7.20;4.78;;;;;;;13.30;83.25;99942.84;5013018;28;20033;-86
2021/05/14 05:47:42;;;;;;;9.82;4.72;;;;;;;13.34;82.92;99943.44;5032323;28;20021;-87
2021/05/14 05:50:08;;;;;;;9.88;5.18;;;;;;;13.33;83.17;99947.88;5032656;28;20072;-87
2021/05/14 05:52:33;;;;;;;7.72;5.47;;;;;;;13.25;83.18;99945.88;5014175;28;20092;-87
2021/05/14 05:54:59;;;;;;;11.52;5.63;;;;;;;13.11;84.25;99946.19;5013040;28;20022;-87
2021/05/14 05:57:24;;;;;;;10.82;5.78;;;;;;;13.18;84.06;99962.34;5028484;28;20478;-87
2021/05/14 05:59:50;;;;;;;14.43;6.35;;;;;;;13.18;84.33;99962.34;5031556;28;20365;-88
2021/05/14 06:02:15;;;;;;;8.63;5.65;;;;;;;13.26;83.86;99967.78;5026613;28;20056;-87
2021/05/14 06:04:40;;;;;;;10.07;6.18;;;;;;;13.28;83.17;99971.13;5027584;28;20028;-87
2021/05/14 06:07:06;;;;;;;10.18;6.10;;;;;;;13.24;83.65;99967.09;5012786;28;20460;-87
2021/05/14 06:09:32;;;;;;;11.40;6.20;;;;;;;13.32;83.78;99972.56;5014161;28;20052;-87
2021/05/14 06:11:57;;;;;;;7.43;5.55;;;;;;;13.38;83.40;99972.03;5032009;28;20048;-87
2021/05/14 06:14:23;;;;;;;13.25;6.68;;;;;;;13.29;83.51;99963.13;5030932;28;20087;-87
2021/05/14 06:16:48;;;;;;;10.85;6.78;;;;;;;13.33;83.52;99976.88;5032307;28;20138;-87
2021/05/14 06:19:20;;;;;;;10.13;6.22;;;;;;;13.34;83.79;99973.25;5032215;28;20082;-88
2021/05/14 06:21:47;;;;;;;8.57;6.25;;;;;;;13.31;83.44;99970.91;5012640;28;20041;-87
2021/05/14 06:24:16;;;;;;;7.55;5.30;;;;;;;13.40;83.13;99980.63;5012544;28;20030;-87
2021/05/14 06:26:44;;;;;;;8.85;6.57;;;;;;;13.36;84.15;99988.94;5031680;28;20033;-87
2021/05/14 06:29:11;;;;;;;12.60;7.53;;;;;;;13.51;83.00;99986.78;5032067;28;20106;-87
2021/05/14 06:31:36;;;;;;;10.52;8.05;;;;;;;13.54;83.07;99989.16;5021036;28;20408;-87
2021/05/14 06:34:02;;;;;;;11.95;8.73;;;;;;;13.53;82.86;99990.13;5015245;28;20033;-87
2021/05/14 06:36:28;;;;;;;15.27;9.27;;;;;;;13.59;83.29;99998.34;5012146;28;20388;-87
2021/05/14 06:38:53;;;;;;;13.30;8.88;;;;;;;13.68;82.41;99999.34;5026704;28;20109;-87
2021/05/14 06:41:19;;;;;;;15.18;9.73;;;;;;;13.71;82.15;100001.72;5022911;28;20466;-87
2021/05/14 06:43:44;;;;;;;14.57;9.75;;;;;;;13.85;82.44;100001.31;5017482;28;20519;-88
2021/05/14 06:46:10;;;;;;;14.70;9.68;;;;;;;13.91;82.44;100015.78;5032044;28;20040;-88
2021/05/14 06:48:35;;;;;;;15.02;9.25;;;;;;;13.82;82.20;100014.81;5031837;28;20464;-88
2021/05/14 06:51:01;;;;;;;14.98;9.90;;;;;;;13.83;81.18;100019.09;5020609;28;20057;-95
2021/05/14 06:53:26;;;;;;;12.82;9.32;;;;;;;13.90;81.43;100011.47;5022016;28;20029;-92
2021/05/14 06:55:52;;;;;;;21.70;10.63;;;;;;;13.62;82.79;100020.97;5035871;28;20033;-91
2021/05/14 06:58:18;;;;;;;12.77;8.40;;;;;;;14.11;82.16;100027.22;5034225;28;20032;-90
2021/05/14 07:00:43;;;;;;;11.70;9.13;;;;;;;14.23;80.79;100034.03;5016814;28;20037;-91
2021/05/14 07:03:09;;;;;;;16.08;9.75;;;;;;;14.13;80.41;100022.63;5015907;28;20025;-91
2021/05/14 07:05:34;;;;;;;18.30;9.85;;;;;;;14.08;81.02;100032.78;5016065;28;20439;-92
2021/05/14 07:08:00;;;;;;;10.88;8.90;;;;;;;14.17;80.20;100037.22;5015386;28;20037;-84
2021/05/14 07:10:27;;;;;;;13.30;8.35;;;;;;;14.21;79.29;100033.34;5031208;28;20360;-93
2021/05/14 07:12:52;;;;;;;14.35;8.75;;;;;;;14.23;79.35;100041.97;5021262;28;20028;-92
2021/05/14 07:15:18;;;;;;;11.95;9.38;;;;;;;14.07;80.04;100031.94;5024797;28;20029;-92
2021/05/14 07:17:43;;;;;;;15.90;9.90;;;;;;;13.95;80.71;100034.84;5023265;28;20095;-92
2021/05/14 07:20:09;;;;;;;14.65;9.55;;;;;;;14.18;80.41;100040.69;5026000;28;20541;-93
2021/05/14 07:22:35;;;;;;;13.60;9.10;;;;;;;14.25;80.22;100044.47;5026749;28;20033;-91
2021/05/14 07:25:01;;;;;;;13.82;8.82;;;;;;;14.22;79.85;100044.75;5015092;28;20148;-92
2021/05/14 07:27:26;;;;;;;12.77;9.60;;;;;;;14.39;78.92;100048.53;5024020;28;20440;-92
2021/05/14 07:29:52;;;;;;;14.70;10.60;;;;;;;14.32;79.01;100040.31;5034995;28;20036;-93
2021/05/14 07:32:17;;;;;;;15.25;10.10;;;;;;;14.44;79.53;100051.59;5024129;28;20035;-92
2021/05/14 07:34:42;;;;;;;16.75;10.93;;;;;;;14.63;79.77;100043.72;5035789;28;20037;-91
2021/05/14 07:37:09;;;;;;;16.63;11.75;;;;;;;14.58;79.32;100030.06;5031274;28;20018;-91
2021/05/14 07:39:38;;;;;;;16.08;11.55;;;;;;;14.62;78.86;100044.66;5014483;28;20387;-94
2021/05/14 07:42:04;;;;;;;20.48;12.25;;;;;;;14.67;79.14;100045.09;5029241;28;20021;-94
2021/05/14 07:44:30;;;;;;;18.10;12.18;;;;;;;14.96;78.88;100049.50;5026577;28;20025;-94
2021/05/14 07:46:55;;;;;;;14.70;10.35;;;;;;;14.88;78.01;100050.22;5028689;28;20028;-91
2021/05/14 07:49:21;;;;;;;15.90;11.23;;;;;;;14.95;77.73;100049.66;5033324;28;20034;-90
2021/05/14 07:51:47;;;;;;;14.15;10.98;;;;;;;14.85;77.84;100042.59;5016663;28;20518;-91
2021/05/14 07:54:12;;;;;;;12.82;9.85;;;;;;;14.74;78.27;100049.81;5012175;28;20022;-92
2021/05/14 07:56:38;;;;;;;13.82;11.25;;;;;;;14.58;77.98;100047.75;5013830;28;20025;-91
2021/05/14 07:59:04;;;;;;;19.10;10.65;;;;;;;14.68;78.26;100062.59;5015861;28;20548;-91
2021/05/14 08:01:29;;;;;;;14.32;10.50;;;;;;;14.82;76.48;100064.00;5026622;28;20049;-90
2021/05/14 08:03:55;;;;;;;13.82;9.80;;;;;;;15.08;77.04;100068.69;5035848;28;20032;-90
2021/05/14 08:06:21;;;;;;;16.35;11.35;;;;;;;15.11;78.30;100057.03;5020013;28;20022;-90
2021/05/14 08:08:47;;;;;;;13.70;9.27;;;;;;;15.60;76.52;100065.63;5025324;28;20025;-89
2021/05/14 08:11:12;;;;;;;13.00;9.45;;;;;;;15.82;74.99;100060.00;5023369;28;20025;-89
2021/05/14 08:13:38;;;;;;;15.95;9.82;;;;;;;16.00;74.34;100059.25;5023571;28;20108;-90
2021/05/14 08:16:04;;;;;;;10.40;6.38;;;;;;;16.24;68.91;100066.63;5033982;28;20056;-89
2021/05/14 08:18:29;;;;;;;8.88;4.82;;;;;;;16.33;68.71;100057.78;5035601;28;20033;-89
2021/05/14 08:20:54;;;;;;;11.82;5.40;;;;;;;16.21;67.43;100064.25;5018157;28;20022;-89
2021/05/14 08:23:20;;;;;;;6.55;4.43;;;;;;;16.29;66.09;100058.22;5030592;28;20032;-90
2021/05/14 08:25:47;;;;;;;9.20;5.22;;;;;;;16.43;65.97;100057.72;5035617;28;20029;-90
2021/05/14 08:28:13;;;;;;;8.43;4.38;;;;;;;16.35;65.96;100063.75;5015882;28;20053;-89
2021/05/14 08:30:41;;;;;;;6.72;4.43;;;;;;;16.37;65.43;100055.66;5016975;28;20537;-89
2021/05/14 08:33:06;;;;;;;9.60;4.93;;;;;;;16.34;64.03;100062.09;5032393;28;20052;-89
2021/05/14 08:35:31;;;;;;;8.13;4.88;;;;;;;16.11;64.55;100060.84;5027631;28;20476;-90
2021/05/14 08:37:57;;;;;;;11.20;6.40;;;;;;;16.03;66.37;100062.44;5026299;28;20108;-90
2021/05/14 08:40:22;;;;;;;9.57;7.15;;;;;;;15.70;69.77;100061.16;5036176;28;20049;-90
2021/05/14 08:42:48;;;;;;;11.00;8.13;;;;;;;15.69;71.01;100064.78;5018595;28;20033;-90
2021/05/14 08:45:14;;;;;;;14.30;8.55;;;;;;;15.94;70.24;100076.53;5035179;28;20021;-90
2021/05/14 08:47:41;;;;;;;15.40;8.40;;;;;;;15.74;68.50;100067.88;5035311;28;20056;-91
2021/05/14 08:50:08;;;;;;;14.68;8.70;;;;;;;15.72;69.66;100077.72;5032505;28;20033;-89
2021/05/14 08:52:36;;;;;;;11.80;9.07;;;;;;;15.94;70.39;100070.41;5020451;28;20034;-90
2021/05/14 08:55:03;;;;;;;11.90;8.35;;;;;;;16.11;69.11;100071.44;5029713;28;20078;-89
2021/05/14 08:57:28;;;;;;;14.70;8.45;;;;;;;16.24;68.73;100062.16;5014636;28;20026;-90
2021/05/14 08:59:54;;;;;;;9.52;7.13;;;;;;;16.61;67.15;100060.38;5023709;28;20025;-91
2021/05/14 09:02:19;;;;;;;10.95;7.07;;;;;;;17.00;65.15;100052.09;5012809;28;20037;-90
2021/05/14 09:04:47;;;;;;;11.98;7.32;;;;;;;17.49;64.50;100056.88;5020263;28;20104;-90
2021/05/14 09:07:16;;;;;;;14.80;6.47;;;;;;;17.43;62.87;100063.66;5019270;28;21642;-90
2021/05/14 09:10:01;;;;;;;12.57;6.65;;;;;;;17.17;61.12;100061.81;5016912;28;20033;-89
2021/05/14 09:12:36;;;;;;;11.27;6.30;;;;;;;17.61;62.85;100060.91;5029226;28;20100;-90
2021/05/14 09:15:28;;;;;;;8.75;5.55;;;;;;;17.99;61.88;100058.78;5013740;28;20045;-90
2021/05/14 09:18:17;;;;;;;11.88;7.63;;;;;;;18.06;61.70;100049.19;5022979;28;20108;-89
2021/05/14 09:20:47;;;;;;;9.63;6.60;;;;;;;17.83;61.87;100055.09;5020895;28;20125;-90
2021/05/14 09:23:15;;;;;;;11.57;7.88;;;;;;;17.41;61.53;100055.00;5012991;28;20030;-90
2021/05/14 09:26:00;;;;;;;9.23;6.47;;;;;;;17.35;62.21;100059.13;5021702;28;20036;-89
2021/05/14 09:28:26;;;;;;;11.00;8.40;;;;;;;17.21;64.30;100059.69;5020081;28;20105;-89
2021/05/14 09:31:14;;;;;;;12.88;8.43;;;;;;;17.11;64.40;100061.63;5019454;28;20117;-90
2021/05/14 09:33:59;;;;;;;14.13;8.70;;;;;;;17.08;65.04;100069.88;5021527;28;20377;-89
2021/05/14 09:36:32;;;;;;;15.13;9.20;;;;;;;16.77;65.03;100073.75;5015667;28;20017;-91
2021/05/14 09:39:06;;;;;;;16.67;9.20;;;;;;;16.56;64.66;100076.69;5022493;28;20388;-90
2021/05/14 09:41:39;;;;;;;13.93;9.38;;;;;;;16.38;66.44;100079.34;5018440;28;20084;-91
2021/05/14 09:44:04;;;;;;;13.98;9.05;;;;;;;16.72;66.60;100061.94;5023260;28;20029;-91
2021/05/14 09:46:33;;;;;;;14.10;9.98;;;;;;;16.73;66.66;100066.28;5016050;28;20084;-90
2021/05/14 09:49:04;;;;;;;15.27;9.30;;;;;;;16.83;65.08;100067.03;5012051;28;20084;-91
2021/05/14 09:51:30;;;;;;;14.60;9.65;;;;;;;16.81;65.31;100058.38;5027565;28;20038;-90
2021/05/14 09:53:56;;;;;;;17.05;9.23;;;;;;;17.18;63.98;100050.25;5021145;28;20034;-91
2021/05/14 09:59:02;;;;;;;15.57;9.25;;;;;;;17.89;63.96;100076.69;5107995;27;20364;-89
2021/05/14 10:01:29;;;;;;;16.88;9.13;;;;;;;17.93;63.41;100072.72;5104979;28;20112;-89
2021/05/14 10:03:56;;;;;;;11.60;8.43;;;;;;;17.97;62.18;100076.69;5088146;28;20050;-89
2021/05/14 10:06:22;;;;;;;15.13;9.55;;;;;;;17.91;62.55;100072.03;5087794;28;20032;-89
2021/05/14 10:08:50;;;;;;;15.73;9.18;;;;;;;18.21;62.08;100082.13;5085796;28;20033;-90
2021/05/14 10:11:20;;;;;;;17.27;10.43;;;;;;;17.66;62.78;100063.94;5083271;28;20381;-89
2021/05/14 10:13:46;;;;;;;15.50;9.18;;;;;;;17.96;61.91;100077.72;5081118;28;20042;-89
2021/05/14 10:16:11;;;;;;;14.10;8.00;;;;;;;18.39;61.90;100075.84;5077727;28;20063;-89
2021/05/14 10:18:42;;;;;;;13.15;8.05;;;;;;;18.62;59.50;100081.34;5083520;28;20052;-89
2021/05/14 10:21:09;;;;;;;11.82;6.95;;;;;;;19.42;58.11;100081.53;5078095;28;20036;-90
2021/05/14 10:23:35;;;;;;;10.63;7.53;;;;;;;19.89;56.17;100079.91;5086430;28;20386;-90
2021/05/14 10:26:10;;;;;;;14.00;7.50;;;;;;;20.49;55.96;100083.75;5077547;28;20039;-89
2021/05/14 10:28:47;;;;;;;12.02;6.65;;;;;;;20.53;54.17;100077.06;5084538;28;20033;-92
2021/05/14 10:31:19;;;;;;;15.65;7.57;;;;;;;20.88;54.32;100066.84;5080946;28;20060;-91
2021/05/14 10:33:51;;;;;;;12.07;7.03;;;;;;;20.77;54.44;100072.59;5085004;28;20021;-89
2021/05/14 10:36:24;;;;;;;11.63;6.20;;;;;;;21.21;53.42;100074.56;5089595;28;20040;-91
2021/05/14 10:39:32;;;;;;;12.40;6.22;;;;;;;21.76;50.70;100069.81;5084045;28;20035;-89
2021/05/14 10:42:09;;;;;;;9.90;5.38;;;;;;;22.45;48.75;100069.41;5075658;28;20040;-89
2021/05/14 10:44:42;;;;;;;7.25;5.18;;;;;;;22.58;49.03;100071.41;5084012;28;20024;-90
2021/05/14 10:47:25;;;;;;;9.15;4.63;;;;;;;22.64;46.36;100070.63;5088556;28;20020;-89
2021/05/14 10:50:04;;;;;;;7.40;4.93;;;;;;;22.51;46.35;100066.00;5084788;28;20031;-90
2021/05/14 10:52:34;;;;;;;11.65;4.60;;;;;;;22.68;45.28;100063.88;5077174;28;20496;-89
2021/05/14 10:55:00;;;;;;;7.82;4.97;;;;;;;21.94;45.69;100064.09;5067976;28;20136;-89
2021/05/14 10:57:41;;;;;;;10.05;4.65;;;;;;;22.07;48.94;100072.25;5087053;28;20028;-89
2021/05/14 11:00:27;;;;;;;7.32;4.30;;;;;;;22.45;46.92;100066.75;5089288;28;20020;-89
2021/05/14 11:03:14;;;;;;;9.02;3.72;;;;;;;23.49;45.58;100063.50;5072241;28;20108;-89
2021/05/14 11:05:41;;;;;;;11.55;4.10;;;;;;;24.23;39.91;100053.13;5076127;28;20056;-89
2021/05/14 11:08:35;;;;;;;9.43;3.85;;;;;;;24.24;39.13;100060.97;5086269;28;20454;-89
2021/05/14 11:11:03;;;;;;;6.97;3.53;;;;;;;25.03;36.62;100064.81;5073145;28;20094;-89
2021/05/14 11:13:45;;;;;;;6.35;3.08;;;;;;;25.19;38.17;100062.72;5062972;28;20033;-89
2021/05/14 11:16:32;;;;;;;10.18;3.22;;;;;;;25.69;35.42;100058.53;5070023;28;20035;-89
2021/05/14 11:18:59;;;;;;;6.40;2.63;;;;;;;25.70;35.59;100062.84;5069471;28;20051;-89
2021/05/14 11:22:02;;;;;;;8.48;3.10;;;;;;;26.09;32.48;100058.38;5054164;28;20032;-89
2021/05/14 11:27:34;;;;;;;6.55;2.60;;;;;;;25.07;34.48;100059.84;5011272;23;20039;-96
2021/05/14 11:30:06;;;;;;;6.22;2.70;;;;;;;24.55;35.79;100062.31;4998507;28;20018;-93
2021/05/14 11:32:37;;;;;;;7.68;2.17;;;;;;;24.01;37.23;100063.97;5000242;28;20018;-94
2021/05/14 11:35:03;;;;;;;6.15;2.92;;;;;;;23.15;37.68;100067.81;5014269;28;20352;-91
2021/05/14 11:37:32;;;;;;;7.43;2.58;;;;;;;22.97;38.62;100062.09;5000146;28;20027;-89